FW7772 Weather Reports


Display with metric or nautical units.
time (UTC)temp
F
wind
direction
speed
MPH
gust
MPH
rain 1hr
in
rain 24hr
in
rain mn
in
humidity
%
barometer
mb
20240229055915 36 134 5.0 10.0 0.00 0.00 0.00 86 1007.7
20240229053915 36 128 6.0 11.0 0.00 0.00 0.00 86 1007.7
20240229052915 36 135 5.0 9.0 0.00 0.00 0.00 86 1007.8
20240229051916 36 150 4.0 8.0 0.00 0.00 0.00 86 1007.9
20240229050915 36 151 4.0 7.0 0.00 0.00 0.00 87 1008.0
20240229045921 36 142 4.0 9.0 0.00 0.00 0.00 87 1008.0
20240229043910 36 131 4.0 8.0 0.00 0.00 0.00 87 1008.0
20240229042910 36 170 4.0 9.0 0.00 0.00 0.00 87 1008.0
20240229041910 35 134 3.0 8.0 0.00 0.00 0.00 87 1008.1
20240229040910 35 165 3.0 6.0 0.00 0.00 0.00 87 1008.2
20240229032908 36 137 2.0 4.0 0.00 0.00 0.00 85 1008.6
20240229031912 36 140 2.0 5.0 0.00 0.00 0.00 85 1008.5
20240229030908 36 135 2.0 6.0 0.00 0.00 0.00 85 1008.7
20240229024905 37 177 3.0 12.0 0.00 0.00 0.00 84 1008.7
20240229023906 37 150 4.0 9.0 0.00 0.00 0.00 84 1008.9
20240229022905 37 166 4.0 9.0 0.00 0.00 0.00 84 1008.9
20240229020905 37 161 4.0 9.0 0.00 0.00 0.00 84 1009.2
20240229015905 37 237 4.0 14.0 0.00 0.00 0.00 84 1009.2
20240229014913 37 179 4.0 11.0 0.00 0.00 0.00 84 1009.4
20240229013906 37 164 3.0 7.0 0.00 0.00 0.00 85 1009.5
20240229012903 37 154 3.0 10.0 0.00 0.00 0.00 85 1009.7
20240229011906 37 172 2.0 7.0 0.00 0.00 0.00 85 1009.8
20240229010903 37 168 3.0 7.0 0.00 0.00 0.00 86 1009.9
20240229005903 36 141 2.0 6.0 0.00 0.00 0.00 86 1009.8
20240229004903 36 197 3.0 9.0 0.00 0.00 0.00 87 1009.9
20240229003903 36 254 2.0 7.0 0.00 0.00 0.00 87 1009.9
20240229002906 36 191 1.0 4.0 0.00 0.00 0.00 88 1010.0
20240229001903 36 181 2.0 8.0 0.00 0.00 0.00 89 1010.2
20240229000902 35 231 4.0 11.0 0.00 0.00 0.00 90 1010.0
20240228234903 34 181 3.0 8.0 0.00 0.00 0.00 91 1009.6
20240228233906 34 172 3.0 7.0 0.00 0.00 0.00 91 1009.7
20240228232906 33 171 1.0 4.0 0.00 0.00 0.00 91 1009.8
20240228231902 33 211 1.0 3.0 0.00 0.00 0.00 91 1009.9
20240228230903 33 174 2.0 5.0 0.00 0.00 0.00 91 1009.7
20240228225902 33 166 2.0 4.0 0.00 0.00 0.00 90 1009.7
20240228224903 33 156 1.0 4.0 0.00 0.00 0.00 90 1009.6
20240228223903 33 56 0.0 0.0 0.00 0.00 0.00 90 1009.6
20240228222903 33 56 0.0 0.0 0.00 0.00 0.00 90 1009.7
20240228221905 33 56 0.0 1.0 0.00 0.00 0.00 90 1009.6
20240228220902 33 56 1.0 3.0 0.00 0.00 0.00 90 1009.7
20240228215903 33 14 1.0 3.0 0.00 0.00 0.00 90 1009.8
20240228214904 33 322 1.0 4.0 0.00 0.00 0.00 90 1009.9
20240228213902 33 144 0.0 1.0 0.00 0.00 0.00 90 1009.9
20240228212907 33 144 2.0 3.0 0.00 0.00 0.00 90 1010.0
20240228210902 33 300 1.0 2.0 0.00 0.00 0.00 90 1009.8
20240228205903 33 296 1.0 4.0 0.00 0.00 0.00 90 1009.8
20240228204904 33 268 1.0 3.0 0.00 0.00 0.00 90 1009.7
20240228203902 33 314 2.0 3.0 0.00 0.00 0.00 90 1009.6
20240228202902 33 133 1.0 3.0 0.00 0.00 0.00 90 1009.5
20240228201905 33 356 0.0 2.0 0.00 0.00 0.00 90 1009.6
20240228200903 33 328 0.0 2.0 0.00 0.00 0.00 90 1009.6
20240228195903 33 95 1.0 3.0 0.00 0.00 0.00 89 1009.5
20240228192903 33 183 0.0 1.0 0.00 0.00 0.00 89 1009.5
20240228191902 33 183 0.0 1.0 0.00 0.00 0.00 89 1009.5
20240228190903 33 183 1.0 2.0 0.00 0.00 0.00 89 1009.3
20240228185902 33 183 1.0 3.0 0.00 0.00 0.00 89 1009.3
20240228183903 33 83 0.0 1.0 0.00 0.00 0.00 88 1009.2
20240228182902 33 83 1.0 3.0 0.00 0.00 0.00 88 1009.0
20240228180903 34 241 1.0 3.0 0.00 0.00 0.00 88 1009.2
20240228175902 34 241 0.0 2.0 0.00 0.00 0.00 88 1009.1
20240228174908 34 241 2.0 3.0 0.00 0.00 0.00 87 1009.1
20240228173907 34 251 1.0 2.0 0.00 0.00 0.00 87 1009.0
20240228171903 35 270 1.0 2.0 0.00 0.00 0.00 85 1008.9
20240228170902 35 292 0.0 1.0 0.00 0.00 0.00 85 1008.9
20240228165903 36 292 0.0 2.0 0.00 0.00 0.00 85 1008.9
20240228164903 36 292 0.0 1.0 0.00 0.00 0.00 85 1008.9
20240228163903 36 292 0.0 2.0 0.00 0.00 0.00 85 1008.9
20240228161902 37 247 4.0 7.0 0.00 0.00 0.00 85 1008.7
20240228160906 37 283 5.0 10.0 0.00 0.00 0.00 85 1008.8
20240228155902 37 249 5.0 12.0 0.00 0.00 0.00 85 1008.7
20240228154903 37 268 5.0 12.0 0.00 0.00 0.00 84 1008.5
20240228153902 37 247 3.0 16.0 0.00 0.00 0.00 83 1008.4
20240228152904 38 288 3.0 8.0 0.00 0.00 0.00 83 1008.3
20240228151905 37 262 1.0 4.0 0.00 0.00 0.00 84 1008.2
20240228150902 37 242 3.0 8.0 0.00 0.00 0.00 85 1007.9
20240228145902 37 262 4.0 9.0 0.00 0.00 0.00 85 1007.9
20240228144902 37 183 4.0 11.0 0.00 0.00 0.00 85 1008.0
20240228143903 37 219 3.0 9.0 0.00 0.00 0.00 86 1008.0
20240228141903 37 188 4.0 13.0 0.00 0.00 0.00 85 1007.9
20240228140902 37 305 5.0 14.0 0.00 0.00 0.00 83 1007.8
20240228135903 38 232 3.0 11.0 0.00 0.00 0.00 82 1007.9
20240228134903 38 146 4.0 11.0 0.00 0.00 0.00 80 1007.9
20240228133902 38 208 3.0 9.0 0.00 0.00 0.00 79 1007.7
20240228132902 39 145 3.0 7.0 0.00 0.00 0.00 79 1007.8
20240228131903 38 268 5.0 11.0 0.00 0.00 0.00 79 1007.9
20240228130902 38 197 5.0 13.0 0.00 0.00 0.00 79 1007.9
20240228125902 38 293 4.0 10.0 0.00 0.00 0.00 78 1008.1
20240228124903 38 251 5.0 15.0 0.00 0.00 0.00 78 1008.0
20240228123903 38 140 5.0 13.0 0.00 0.00 0.00 78 1007.9
20240228122915 38 168 5.0 17.0 0.00 0.00 0.00 78 1008.0
20240228121902 37 146 5.0 13.0 0.00 0.00 0.00 78 1008.4
20240228120903 37 195 6.0 12.0 0.00 0.00 0.00 78 1008.1
20240228115902 37 245 6.0 11.0 0.00 0.00 0.00 78 1008.2
20240228113902 37 200 6.0 14.0 0.00 0.00 0.00 78 1008.3
20240228112902 37 191 6.0 15.0 0.00 0.00 0.00 78 1008.3
20240228111908 37 199 5.0 13.0 0.00 0.00 0.00 79 1008.5
20240228110903 37 165 2.0 9.0 0.00 0.00 0.00 79 1008.5
20240228105902 37 143 3.0 14.0 0.00 0.00 0.00 79 1008.3
20240228104903 36 119 6.0 13.0 0.00 0.00 0.00 80 1008.0
20240228103902 36 224 3.0 6.0 0.00 0.00 0.00 82 1008.1
20240228102902 36 120 4.0 9.0 0.00 0.00 0.00 82 1008.2
20240228101905 36 118 3.0 8.0 0.00 0.00 0.00 82 1008.4
20240228100904 36 126 3.0 7.0 0.00 0.00 0.00 82 1008.4
20240228094902 35 212 3.0 8.0 0.00 0.00 0.00 82 1008.4
20240228093902 35 183 3.0 8.0 0.00 0.00 0.00 83 1008.6
20240228092905 35 137 4.0 7.0 0.00 0.00 0.00 83 1008.6
20240228090902 34 50 3.0 9.0 0.00 0.00 0.00 84 1008.7
20240228085903 34 259 4.0 9.0 0.00 0.00 0.00 85 1008.7
20240228082903 33 132 4.0 9.0 0.00 0.00 0.00 87 1008.7
20240228081903 33 152 6.0 10.0 0.00 0.00 0.00 87 1008.8
20240228080903 33 142 5.0 9.0 0.00 0.00 0.00 87 1008.9
20240228075903 33 172 5.0 10.0 0.00 0.00 0.00 86 1008.9
20240228074900 33 137 5.0 12.0 0.00 0.00 0.00 86 1008.9
20240228072900 33 159 4.0 8.0 0.00 0.00 0.00 85 1008.9
20240228071857 33 159 5.0 9.0 0.00 0.00 0.00 86 1009.1
20240228064911 32 76 3.0 6.0 0.00 0.00 0.00 86 1009.2
20240228063857 32 114 4.0 6.0 0.00 0.00 0.00 86 1009.2
20240228062855 32 116 2.0 5.0 0.00 0.00 0.00 86 1009.3
20240228061856 32 130 3.0 6.0 0.00 0.00 0.00 86 1009.4
20240228060856 32 120 3.0 6.0 0.00 0.00 0.00 86 1009.3